createdAt,value
2019-01-14T00:00:50.292Z,6.39
2019-01-14T00:03:14.747Z,6.37
2019-01-14T00:05:39.158Z,5.64
2019-01-14T00:08:03.569Z,6.47
2019-01-14T00:10:27.984Z,6.22
2019-01-14T00:12:52.408Z,5.95
2019-01-14T00:15:16.863Z,5.70
2019-01-14T00:17:41.394Z,6.03
2019-01-14T00:20:08.853Z,6.26
2019-01-14T00:22:33.253Z,6.12
2019-01-14T00:24:57.670Z,5.50
2019-01-14T00:27:22.081Z,5.92
2019-01-14T00:29:46.471Z,5.93
2019-01-14T00:32:10.893Z,5.19
2019-01-14T00:34:35.290Z,5.58
2019-01-14T00:36:59.729Z,5.22
2019-01-14T00:39:24.120Z,5.30
2019-01-14T00:41:48.524Z,5.21
2019-01-14T00:44:12.943Z,5.78
2019-01-14T00:46:37.348Z,5.42
2019-01-14T00:49:01.765Z,5.65
2019-01-14T00:51:26.168Z,5.76
2019-01-14T00:53:50.573Z,5.51
2019-01-14T00:56:14.989Z,5.19
2019-01-14T00:58:39.395Z,5.90
2019-01-14T01:01:03.961Z,5.90
2019-01-14T01:03:28.362Z,6.16
2019-01-14T01:05:52.745Z,5.73
2019-01-14T01:08:17.153Z,5.64
2019-01-14T01:10:41.534Z,5.77
2019-01-14T01:13:06.008Z,5.63
2019-01-14T01:15:30.411Z,5.23
2019-01-14T01:17:54.823Z,5.20
2019-01-14T01:20:20.054Z,5.27
2019-01-14T01:22:44.619Z,5.71
2019-01-14T01:25:10.643Z,5.82
2019-01-14T01:27:35.054Z,5.38
2019-01-14T01:29:59.487Z,5.68
2019-01-14T01:32:23.872Z,5.22
2019-01-14T01:34:48.301Z,5.37
2019-01-14T01:37:12.695Z,5.24
2019-01-14T01:39:37.086Z,5.30
2019-01-14T01:42:01.493Z,5.20
2019-01-14T01:44:25.894Z,5.44
2019-01-14T01:46:50.323Z,5.27
2019-01-14T01:49:14.735Z,5.18
2019-01-14T01:51:39.457Z,4.83
2019-01-14T01:54:04.243Z,5.05
2019-01-14T01:56:28.649Z,5.53
2019-01-14T01:58:53.082Z,5.33
2019-01-14T02:01:17.492Z,5.18
2019-01-14T02:03:41.892Z,5.16
2019-01-14T02:06:06.291Z,5.21
2019-01-14T02:08:30.699Z,5.25
2019-01-14T02:10:55.138Z,4.71
2019-01-14T02:13:19.542Z,5.16
2019-01-14T02:15:43.992Z,5.28
2019-01-14T02:18:08.417Z,5.50
2019-01-14T02:20:32.815Z,4.94
2019-01-14T02:22:57.255Z,5.40
2019-01-14T02:25:21.649Z,5.54
2019-01-14T02:27:46.054Z,5.11
2019-01-14T02:30:13.886Z,5.46
2019-01-14T02:32:38.272Z,5.26
2019-01-14T02:35:02.706Z,4.93
2019-01-14T02:37:27.092Z,5.44
2019-01-14T02:39:51.489Z,5.13
2019-01-14T02:42:15.912Z,5.05
2019-01-14T02:44:40.307Z,4.90
2019-01-14T02:47:04.944Z,5.22
2019-01-14T02:49:29.352Z,5.12
2019-01-14T02:51:53.782Z,5.03
2019-01-14T02:54:18.177Z,5.00
2019-01-14T02:56:42.556Z,4.94
2019-01-14T02:59:06.959Z,4.84
2019-01-14T03:01:31.358Z,4.96
2019-01-14T03:03:55.762Z,4.57
2019-01-14T03:06:20.168Z,4.90
2019-01-14T03:08:44.543Z,4.76
2019-01-14T03:11:08.969Z,4.70
2019-01-14T03:13:33.353Z,5.40
2019-01-14T03:15:57.761Z,4.90
2019-01-14T03:18:22.150Z,4.66
2019-01-14T03:20:46.531Z,4.33
2019-01-14T03:23:10.939Z,4.40
2019-01-14T03:25:35.342Z,4.65
2019-01-14T03:27:59.852Z,4.12
2019-01-14T03:30:24.240Z,4.47
2019-01-14T03:32:48.644Z,4.40
2019-01-14T03:35:13.485Z,4.50
2019-01-14T03:37:37.975Z,4.78
2019-01-14T03:40:02.359Z,4.48
2019-01-14T03:42:26.771Z,4.42
2019-01-14T03:44:51.175Z,4.17
2019-01-14T03:47:15.603Z,4.29
2019-01-14T03:49:40.003Z,4.56
2019-01-14T03:52:04.418Z,4.40
2019-01-14T03:54:29.552Z,4.17
2019-01-14T03:56:53.950Z,4.57
2019-01-14T03:59:18.338Z,4.49
2019-01-14T04:01:42.800Z,4.29
2019-01-14T04:04:07.255Z,4.07
2019-01-14T04:06:31.666Z,4.14
2019-01-14T04:08:56.083Z,4.05
2019-01-14T04:11:20.457Z,4.12
2019-01-14T04:13:44.898Z,3.88
2019-01-14T04:16:09.297Z,3.98
2019-01-14T04:18:33.701Z,3.85
2019-01-14T04:20:58.092Z,3.94
2019-01-14T04:23:22.511Z,3.98
2019-01-14T04:25:46.913Z,3.96
2019-01-14T04:28:11.314Z,3.95
2019-01-14T04:30:35.723Z,4.04
2019-01-14T04:33:00.105Z,4.02
2019-01-14T04:35:24.598Z,4.08
2019-01-14T04:37:49.082Z,4.11
2019-01-14T04:40:14.904Z,4.19
2019-01-14T04:42:39.304Z,4.11
2019-01-14T04:45:04.743Z,4.14
2019-01-14T04:47:29.163Z,4.01
2019-01-14T04:49:53.580Z,3.98
2019-01-14T04:52:17.980Z,4.00
2019-01-14T04:54:42.413Z,4.06
2019-01-14T04:57:06.814Z,4.28
2019-01-14T04:59:31.229Z,4.32
2019-01-14T05:01:55.627Z,4.46
2019-01-14T05:04:20.044Z,4.29
2019-01-14T05:06:44.434Z,4.20
2019-01-14T05:09:08.906Z,4.60
2019-01-14T05:11:33.325Z,4.45
2019-01-14T05:13:57.725Z,4.24
2019-01-14T05:16:22.151Z,3.69
2019-01-14T05:18:46.558Z,3.84
2019-01-14T05:21:11.010Z,4.01
2019-01-14T05:23:35.400Z,3.50
2019-01-14T05:25:59.788Z,3.83
2019-01-14T05:28:24.210Z,3.52
2019-01-14T05:30:48.602Z,3.47
2019-01-14T05:33:13.000Z,3.73
2019-01-14T05:35:37.399Z,3.54
2019-01-14T05:38:01.821Z,3.86
2019-01-14T05:40:26.578Z,3.37
2019-01-14T05:42:51.072Z,3.90
2019-01-14T05:45:15.600Z,3.60
2019-01-14T05:47:40.003Z,4.04
2019-01-14T05:50:07.967Z,4.36
2019-01-14T05:52:32.364Z,4.32
2019-01-14T05:54:56.781Z,3.98
2019-01-14T05:57:21.196Z,4.03
2019-01-14T05:59:45.579Z,3.89
2019-01-14T06:02:09.994Z,4.09
2019-01-14T06:04:34.391Z,3.68
2019-01-14T06:06:58.803Z,3.72
2019-01-14T06:09:23.211Z,3.57
2019-01-14T06:11:47.623Z,3.56
2019-01-14T06:14:12.036Z,3.59
2019-01-14T06:16:36.422Z,3.96
2019-01-14T06:19:00.856Z,3.54
2019-01-14T06:21:25.244Z,3.60
2019-01-14T06:23:49.636Z,3.63
2019-01-14T06:26:14.059Z,3.27
2019-01-14T06:28:38.476Z,3.73
2019-01-14T06:31:02.846Z,3.53
2019-01-14T06:33:27.260Z,3.24
2019-01-14T06:35:51.642Z,3.49
2019-01-14T06:38:16.119Z,4.12
2019-01-14T06:40:40.593Z,3.34
2019-01-14T06:43:05.076Z,3.42
2019-01-14T06:45:29.491Z,3.71
2019-01-14T06:47:53.875Z,3.36
2019-01-14T06:50:19.746Z,3.86
2019-01-14T06:52:44.156Z,3.73
2019-01-14T06:55:08.878Z,3.36
2019-01-14T06:57:33.290Z,3.73
2019-01-14T06:59:57.671Z,3.62
2019-01-14T07:02:22.102Z,3.20
2019-01-14T07:04:46.480Z,3.18
2019-01-14T07:07:10.877Z,3.37
2019-01-14T07:09:35.289Z,3.65
2019-01-14T07:11:59.857Z,3.35
2019-01-14T07:14:24.249Z,3.35
2019-01-14T07:16:48.625Z,3.19
2019-01-14T07:19:13.049Z,3.21
2019-01-14T07:21:37.427Z,3.23
2019-01-14T07:24:01.826Z,3.71
2019-01-14T07:26:26.236Z,3.51
2019-01-14T07:28:50.613Z,3.17
2019-01-14T07:31:15.049Z,3.13
2019-01-14T07:33:39.450Z,3.52
2019-01-14T07:36:04.080Z,3.37
2019-01-14T07:38:28.476Z,3.56
2019-01-14T07:40:52.871Z,3.41
2019-01-14T07:43:17.294Z,3.46
2019-01-14T07:45:41.682Z,3.41
2019-01-14T07:48:06.158Z,3.21
2019-01-14T07:50:30.565Z,3.13
2019-01-14T07:52:54.946Z,3.11
2019-01-14T07:55:19.356Z,3.59
2019-01-14T07:57:43.774Z,3.47
2019-01-14T08:00:22.846Z,3.59
2019-01-14T08:02:47.250Z,3.41
2019-01-14T08:05:11.772Z,3.26
2019-01-14T08:07:36.182Z,3.38
2019-01-14T08:10:00.575Z,3.16
2019-01-14T08:12:24.994Z,3.24
2019-01-14T08:14:49.391Z,3.24
2019-01-14T08:17:13.764Z,3.29
2019-01-14T08:19:38.186Z,3.27
2019-01-14T08:22:02.582Z,3.42
2019-01-14T08:24:26.999Z,3.45
2019-01-14T08:26:51.396Z,3.79
2019-01-14T08:29:15.811Z,4.03
2019-01-14T08:31:40.200Z,3.47
2019-01-14T08:34:04.588Z,3.71
2019-01-14T08:36:29.001Z,4.08
2019-01-14T08:38:53.390Z,3.84
2019-01-14T08:41:18.213Z,4.09
2019-01-14T08:43:43.161Z,3.90
2019-01-14T08:46:08.028Z,4.07
2019-01-14T08:48:32.460Z,4.14
2019-01-14T08:50:56.843Z,3.59
2019-01-14T08:53:21.240Z,4.05
2019-01-14T08:55:45.646Z,4.28
2019-01-14T08:58:10.021Z,4.40
2019-01-14T09:00:34.437Z,3.66
2019-01-14T09:02:58.823Z,3.75
2019-01-14T09:05:23.286Z,3.99
2019-01-14T09:07:47.688Z,4.32
2019-01-14T09:10:15.229Z,4.00
2019-01-14T09:12:39.621Z,3.78
2019-01-14T09:15:05.639Z,4.25
2019-01-14T09:17:30.065Z,3.97
2019-01-14T09:19:54.458Z,4.19
2019-01-14T09:22:18.867Z,3.56
2019-01-14T09:24:43.272Z,3.47
2019-01-14T09:27:07.659Z,3.69
2019-01-14T09:29:32.067Z,3.48
2019-01-14T09:31:57.327Z,3.95
2019-01-14T09:34:21.889Z,3.93
2019-01-14T09:36:46.297Z,4.12
2019-01-14T09:39:10.759Z,3.53
2019-01-14T09:41:35.170Z,3.64
2019-01-14T09:43:59.611Z,4.46
2019-01-14T09:46:24.000Z,4.22
2019-01-14T09:48:48.427Z,3.81
2019-01-14T09:51:12.908Z,4.19
2019-01-14T09:53:37.316Z,4.77
2019-01-14T09:56:01.708Z,4.77
2019-01-14T09:58:26.116Z,4.17
2019-01-14T10:00:50.493Z,3.97
2019-01-14T10:03:14.911Z,4.16
2019-01-14T10:05:39.314Z,4.58
2019-01-14T10:08:03.761Z,4.87
2019-01-14T10:10:28.165Z,5.23
2019-01-14T10:12:52.559Z,4.61
2019-01-14T10:15:19.168Z,3.80
2019-01-14T10:17:43.750Z,4.57
2019-01-14T10:20:09.789Z,3.89
2019-01-14T10:22:34.256Z,4.50
2019-01-14T10:24:58.648Z,4.59
2019-01-14T10:27:23.058Z,4.15
2019-01-14T10:29:47.453Z,4.07
2019-01-14T10:32:11.901Z,3.73
2019-01-14T10:34:36.272Z,4.00
2019-01-14T10:37:00.665Z,4.17
2019-01-14T10:39:25.099Z,4.73
2019-01-14T10:41:49.479Z,3.98
2019-01-14T10:44:13.916Z,4.14
2019-01-14T10:46:38.300Z,4.24
2019-01-14T10:49:06.628Z,4.16
2019-01-14T10:51:28.814Z,4.23
2019-01-14T10:53:53.202Z,4.79
2019-01-14T10:56:17.608Z,3.50
2019-01-14T10:58:42.037Z,3.93
2019-01-14T11:01:06.468Z,3.25
2019-01-14T11:03:30.873Z,3.98
2019-01-14T11:05:55.263Z,3.76
2019-01-14T11:08:19.675Z,2.93
2019-01-14T11:10:44.057Z,3.07
2019-01-14T11:13:08.468Z,3.35
2019-01-14T11:15:32.867Z,3.82
2019-01-14T11:17:57.290Z,3.84
2019-01-14T11:20:24.222Z,3.96
2019-01-14T11:22:48.845Z,5.34
2019-01-14T11:25:13.582Z,5.05
2019-01-14T11:27:38.043Z,4.51
2019-01-14T11:30:02.467Z,4.87
2019-01-14T11:32:26.862Z,4.79
2019-01-14T11:34:51.256Z,3.72
2019-01-14T11:37:15.772Z,3.82
2019-01-14T11:39:40.174Z,4.02
2019-01-14T11:42:04.587Z,4.03
2019-01-14T11:44:28.998Z,4.01
2019-01-14T11:46:53.446Z,3.54
2019-01-14T11:49:17.845Z,4.02
2019-01-14T11:51:42.264Z,4.18
2019-01-14T11:54:06.671Z,3.22
2019-01-14T11:56:31.087Z,2.99
2019-01-14T11:58:55.466Z,3.19
2019-01-14T12:01:19.851Z,3.49
2019-01-14T12:03:44.275Z,3.89
2019-01-14T12:06:08.658Z,3.52
2019-01-14T12:08:33.075Z,3.31
2019-01-14T12:10:57.461Z,3.06
2019-01-14T12:13:21.853Z,4.01
2019-01-14T12:15:46.263Z,5.45
2019-01-14T12:18:10.649Z,5.34
2019-01-14T12:20:35.056Z,5.02
2019-01-14T12:22:59.522Z,5.05
2019-01-14T12:25:23.939Z,4.90
2019-01-14T12:27:48.391Z,5.39
2019-01-14T12:30:18.740Z,5.06
2019-01-14T12:32:43.155Z,5.00
2019-01-14T12:35:07.607Z,5.32
2019-01-14T12:37:32.077Z,5.30
2019-01-14T12:39:56.465Z,6.77
2019-01-14T12:42:20.855Z,8.84
2019-01-14T12:44:45.258Z,5.31
2019-01-14T12:47:09.640Z,5.07
2019-01-14T12:49:34.050Z,5.02
2019-01-14T12:51:58.440Z,5.16
2019-01-14T12:54:22.836Z,4.51
2019-01-14T12:56:47.232Z,4.69
2019-01-14T12:59:11.612Z,4.63
2019-01-14T13:01:36.014Z,4.90
2019-01-14T13:04:00.395Z,4.84
2019-01-14T13:06:24.885Z,5.45
2019-01-14T13:08:49.238Z,4.74
2019-01-14T13:11:13.633Z,5.46
2019-01-14T13:13:38.051Z,5.16
2019-01-14T13:16:02.495Z,4.19
2019-01-14T13:18:26.928Z,4.44
2019-01-14T13:20:51.324Z,4.67
2019-01-14T13:23:15.733Z,4.37
2019-01-14T13:25:40.174Z,4.51
2019-01-14T13:28:04.994Z,3.97
2019-01-14T13:30:29.837Z,4.63
2019-01-14T13:32:54.762Z,4.92
2019-01-14T13:35:19.187Z,4.49
2019-01-14T13:37:43.649Z,4.78
2019-01-14T13:40:12.538Z,5.92
2019-01-14T13:42:36.951Z,5.02
2019-01-14T13:45:01.344Z,4.86
2019-01-14T13:47:26.119Z,4.88
2019-01-14T13:49:50.530Z,5.05
2019-01-14T13:52:14.929Z,5.57
2019-01-14T13:54:39.346Z,5.13
2019-01-14T13:57:03.718Z,6.12
2019-01-14T13:59:28.099Z,4.80
2019-01-14T14:01:52.516Z,5.63
2019-01-14T14:04:16.903Z,5.14
2019-01-14T14:06:41.323Z,5.01
2019-01-14T14:09:08.521Z,5.55
2019-01-14T14:11:32.908Z,5.64
2019-01-14T14:13:58.200Z,4.93
2019-01-14T14:16:22.590Z,5.38
2019-01-14T14:18:46.985Z,5.85
2019-01-14T14:21:11.383Z,5.45
2019-01-14T14:23:35.785Z,7.28
2019-01-14T14:26:00.280Z,6.18
2019-01-14T14:28:24.669Z,5.26
2019-01-14T14:30:49.044Z,5.60
2019-01-14T14:33:13.527Z,5.99
2019-01-14T14:35:37.984Z,5.24
2019-01-14T14:38:02.604Z,5.44
2019-01-14T14:40:26.995Z,5.73
2019-01-14T14:42:51.413Z,4.62
2019-01-14T14:45:16.289Z,4.71
2019-01-14T14:47:40.681Z,4.87
2019-01-14T14:50:11.150Z,4.33
2019-01-14T14:52:35.517Z,5.24
2019-01-14T14:54:59.910Z,4.89
2019-01-14T14:57:24.364Z,4.55
2019-01-14T14:59:48.779Z,3.97
2019-01-14T15:02:13.216Z,4.09
2019-01-14T15:04:37.614Z,4.21
2019-01-14T15:07:02.000Z,4.12
2019-01-14T15:09:31.622Z,4.14
2019-01-14T15:11:52.501Z,3.51
2019-01-14T15:14:16.933Z,3.57
2019-01-14T15:16:41.325Z,3.77
2019-01-14T15:19:05.783Z,3.25
2019-01-14T15:21:30.210Z,3.21
2019-01-14T15:23:54.596Z,3.12
2019-01-14T15:26:19.035Z,2.99
2019-01-14T15:28:43.445Z,3.00
2019-01-14T15:31:07.847Z,2.81
2019-01-14T15:33:32.267Z,2.67
2019-01-14T15:35:56.677Z,2.78
2019-01-14T15:38:21.092Z,3.05
2019-01-14T15:40:45.570Z,2.82
2019-01-14T15:43:10.024Z,2.76
2019-01-14T15:45:34.481Z,2.32
2019-01-14T15:47:58.864Z,2.19
2019-01-14T15:50:23.285Z,2.21
2019-01-14T15:52:47.676Z,2.01
2019-01-14T15:55:25.380Z,2.48
2019-01-14T15:57:51.469Z,2.41
2019-01-14T16:00:19.964Z,2.21
2019-01-14T16:02:44.629Z,2.31
2019-01-14T16:05:09.268Z,1.93
2019-01-14T16:07:33.713Z,1.99
2019-01-14T16:09:58.108Z,2.04
2019-01-14T16:12:22.501Z,2.14
2019-01-14T16:14:46.943Z,2.35
2019-01-14T16:17:11.338Z,2.04
2019-01-14T16:19:35.772Z,1.86
2019-01-14T16:22:00.185Z,2.14
2019-01-14T16:24:24.584Z,2.03
2019-01-14T16:26:49.008Z,1.93
2019-01-14T16:29:13.409Z,1.88
2019-01-14T16:31:37.831Z,1.83
2019-01-14T16:34:02.238Z,1.90
2019-01-14T16:36:26.658Z,1.74
2019-01-14T16:38:51.086Z,1.81
2019-01-14T16:41:15.503Z,1.94
2019-01-14T16:43:39.938Z,1.76
2019-01-14T16:46:04.389Z,1.28
2019-01-14T16:48:28.816Z,1.75
2019-01-14T16:50:53.248Z,1.65
2019-01-14T16:53:17.652Z,1.47
2019-01-14T16:55:43.750Z,1.58
2019-01-14T16:58:08.169Z,1.61
2019-01-14T17:00:32.558Z,1.67
2019-01-14T17:02:57.016Z,1.56
2019-01-14T17:05:24.163Z,1.61
2019-01-14T17:07:48.555Z,1.80
2019-01-14T17:10:14.910Z,1.50
2019-01-14T17:12:39.293Z,1.50
2019-01-14T17:15:04.358Z,1.52
2019-01-14T17:17:33.212Z,1.63
2019-01-14T17:19:57.712Z,1.70
2019-01-14T17:22:22.114Z,1.64
2019-01-14T17:24:46.559Z,1.63
2019-01-14T17:27:11.014Z,1.71
2019-01-14T17:29:35.435Z,1.89
2019-01-14T17:31:59.837Z,1.74
2019-01-14T17:34:24.258Z,1.64
2019-01-14T17:36:48.680Z,1.62
2019-01-14T17:39:13.083Z,1.75
2019-01-14T17:41:38.227Z,1.51
2019-01-14T17:44:02.608Z,1.52
2019-01-14T17:46:27.075Z,1.55
2019-01-14T17:48:51.490Z,1.54
2019-01-14T17:51:17.537Z,1.37
2019-01-14T17:53:41.957Z,1.53
2019-01-14T17:56:06.382Z,1.65
2019-01-14T17:58:30.817Z,1.40
2019-01-14T18:00:55.234Z,1.39
2019-01-14T18:03:19.647Z,1.26
2019-01-14T18:05:44.067Z,1.12
2019-01-14T18:08:08.471Z,1.14
2019-01-14T18:10:39.717Z,1.10
2019-01-14T18:12:59.003Z,1.19
2019-01-14T18:15:23.449Z,1.23
2019-01-14T18:17:47.842Z,1.16
2019-01-14T18:20:14.899Z,1.43
2019-01-14T18:22:39.335Z,1.40
2019-01-14T18:25:04.792Z,1.34
2019-01-14T18:27:29.213Z,1.23
2019-01-14T18:29:53.614Z,1.23
2019-01-14T18:32:18.045Z,1.02
2019-01-14T18:34:42.470Z,1.19
2019-01-14T18:37:06.855Z,1.28
2019-01-14T18:39:31.301Z,1.17
2019-01-14T18:41:55.693Z,1.15
2019-01-14T18:44:20.091Z,1.14
2019-01-14T18:46:44.542Z,1.26
2019-01-14T18:49:08.938Z,1.43
2019-01-14T18:51:33.380Z,1.20
2019-01-14T18:53:57.783Z,1.43
2019-01-14T18:56:22.239Z,1.40
2019-01-14T18:58:46.645Z,1.35
2019-01-14T19:01:11.047Z,1.42
2019-01-14T19:03:35.484Z,1.39
2019-01-14T19:05:59.900Z,1.45
2019-01-14T19:08:24.347Z,1.26
2019-01-14T19:10:54.303Z,1.43
2019-01-14T19:13:14.860Z,1.34
2019-01-14T19:15:39.361Z,1.30
2019-01-14T19:18:03.841Z,1.34
2019-01-14T19:20:28.431Z,1.33
2019-01-14T19:22:52.892Z,1.14
2019-01-14T19:25:17.304Z,1.22
2019-01-14T19:27:41.730Z,1.57
2019-01-14T19:30:09.194Z,1.37
2019-01-14T19:32:38.322Z,1.34
2019-01-14T19:34:59.687Z,1.75
2019-01-14T19:37:24.086Z,1.84
2019-01-14T19:39:48.493Z,1.62
2019-01-14T19:42:12.941Z,1.48
2019-01-14T19:44:37.338Z,1.43
2019-01-14T19:47:01.755Z,1.43
2019-01-14T19:49:26.199Z,1.49
2019-01-14T19:51:50.578Z,1.28
2019-01-14T19:54:14.988Z,1.31
2019-01-14T19:56:39.510Z,1.42
2019-01-14T19:59:04.205Z,1.28
2019-01-14T20:01:28.624Z,1.35
2019-01-14T20:03:53.025Z,1.37
2019-01-14T20:06:17.527Z,1.34
2019-01-14T20:08:41.961Z,1.41
2019-01-14T20:11:09.375Z,1.37
2019-01-14T20:13:32.525Z,1.35
2019-01-14T20:15:56.968Z,1.30
2019-01-14T20:18:21.473Z,1.48
2019-01-14T20:20:45.883Z,1.41
2019-01-14T20:23:10.305Z,1.47
2019-01-14T20:25:34.721Z,1.62
2019-01-14T20:27:59.111Z,1.72
2019-01-14T20:30:23.775Z,1.55
2019-01-14T20:32:48.176Z,1.59
2019-01-14T20:35:12.637Z,1.62
2019-01-14T20:37:37.042Z,1.63
2019-01-14T20:40:01.454Z,1.78
2019-01-14T20:42:25.901Z,1.62
2019-01-14T20:44:50.340Z,1.79
2019-01-14T20:47:14.748Z,1.81
2019-01-14T20:49:39.163Z,1.69
2019-01-14T20:52:03.583Z,1.78
2019-01-14T20:54:28.023Z,1.82
2019-01-14T20:56:52.415Z,1.94
2019-01-14T20:59:16.830Z,2.34
2019-01-14T21:01:41.274Z,2.07
2019-01-14T21:04:05.678Z,1.88
2019-01-14T21:06:30.137Z,2.06
2019-01-14T21:08:54.558Z,1.47
2019-01-14T21:11:23.920Z,2.01
2019-01-14T21:13:45.179Z,1.79
2019-01-14T21:16:09.566Z,1.95
2019-01-14T21:18:34.029Z,1.94
2019-01-14T21:20:58.425Z,2.01
2019-01-14T21:23:22.842Z,2.04
2019-01-14T21:25:47.263Z,2.12
2019-01-14T21:28:11.685Z,1.87
2019-01-14T21:30:36.113Z,1.88
2019-01-14T21:33:00.529Z,1.92
2019-01-14T21:35:24.985Z,1.92
2019-01-14T21:37:50.110Z,1.97
2019-01-14T21:40:14.947Z,1.74
2019-01-14T21:42:39.383Z,1.83
2019-01-14T21:45:04.914Z,1.69
2019-01-14T21:47:32.697Z,1.79
2019-01-14T21:49:55.480Z,1.71
2019-01-14T21:52:19.886Z,1.73
2019-01-14T21:54:44.294Z,1.76
2019-01-14T21:57:08.724Z,1.91
2019-01-14T21:59:33.115Z,1.82
2019-01-14T22:01:57.512Z,1.72
2019-01-14T22:04:21.939Z,1.68
2019-01-14T22:06:46.350Z,1.74
2019-01-14T22:09:10.943Z,1.80
2019-01-14T22:11:38.756Z,1.79
2019-01-14T22:14:01.525Z,1.85
2019-01-14T22:16:25.929Z,1.78
2019-01-14T22:18:50.333Z,1.82
2019-01-14T22:21:14.747Z,1.64
2019-01-14T22:23:39.142Z,1.75
2019-01-14T22:26:03.536Z,1.77
2019-01-14T22:28:27.960Z,1.77
2019-01-14T22:30:52.352Z,1.73
2019-01-14T22:33:16.793Z,1.72
2019-01-14T22:35:41.185Z,1.68
2019-01-14T22:38:05.597Z,1.58
2019-01-14T22:40:30.026Z,1.70
2019-01-14T22:42:54.500Z,1.76
2019-01-14T22:45:18.907Z,1.87
2019-01-14T22:47:43.292Z,1.67
2019-01-14T22:50:16.261Z,1.65
2019-01-14T22:52:40.661Z,1.94
2019-01-14T22:55:07.212Z,1.80
2019-01-14T22:57:31.624Z,1.97
2019-01-14T22:59:56.016Z,1.87
2019-01-14T23:02:20.431Z,1.84
2019-01-14T23:04:44.858Z,1.84
2019-01-14T23:07:09.239Z,1.61
2019-01-14T23:09:33.684Z,1.62
2019-01-14T23:11:58.065Z,1.75
2019-01-14T23:14:22.453Z,1.55
2019-01-14T23:16:46.875Z,1.56
2019-01-14T23:19:11.342Z,1.64
2019-01-14T23:21:35.769Z,1.53
2019-01-14T23:24:00.224Z,1.80
2019-01-14T23:26:24.621Z,1.64
2019-01-14T23:28:49.048Z,1.90
2019-01-14T23:31:13.559Z,2.05
2019-01-14T23:33:37.973Z,1.77
2019-01-14T23:36:02.372Z,2.03
2019-01-14T23:38:26.781Z,2.15
2019-01-14T23:40:51.183Z,2.37
2019-01-14T23:43:15.581Z,1.94
2019-01-14T23:45:39.981Z,2.01
2019-01-14T23:48:04.610Z,1.82
2019-01-14T23:50:29.047Z,1.85
2019-01-14T23:52:53.473Z,1.89
2019-01-14T23:55:17.889Z,1.77
2019-01-14T23:57:42.306Z,1.80
